Time;durP1;ratioP1;P1;durP2;ratioP2;P2;SDS_P1;SDS_P2;PMS_P1;PMS_P2;Temp;Humidity;BMP_temperature;BMP_pressure;BME280_temperature;BME280_humidity;BME280_pressure;Samples;Min_cycle;Max_cycle;Signal;HPM_P1;HPM_P2
2022/09/06 00:02:07;;;;;;;;;;;22.70;42.30;;;;;;5049680;28;19960;-61
2022/09/06 00:04:34;;;;;;;;;;;22.70;42.30;;;;;;5033916;28;19959;-61
2022/09/06 00:07:01;;;;;;;;;;;22.70;42.30;;;;;;5052650;28;19924;-60
2022/09/06 00:09:28;;;;;;;;;;;22.70;42.30;;;;;;5050618;28;19967;-61
2022/09/06 00:11:54;;;;;;;;;;;22.70;42.20;;;;;;5033681;28;19924;-60
2022/09/06 00:14:21;;;;;;;;;;;22.70;42.20;;;;;;5033921;28;19978;-61
2022/09/06 00:16:49;;;;;;;;;;;22.70;42.30;;;;;;5033304;28;19971;-60
2022/09/06 00:19:16;;;;;;;;;;;22.70;42.30;;;;;;5029565;28;20219;-60
2022/09/06 00:21:42;;;;;;;;;;;22.70;42.30;;;;;;5048779;28;19928;-61
2022/09/06 00:24:12;;;;;;;;;;;22.70;42.30;;;;;;5032051;28;19925;-61
2022/09/06 00:26:39;;;;;;;;;;;22.70;42.30;;;;;;5034043;28;19968;-61
2022/09/06 00:29:05;;;;;;;;;;;22.70;42.30;;;;;;5031371;28;20019;-61
2022/09/06 00:31:34;;;;;;;;;;;22.70;42.20;;;;;;5032991;28;19921;-61
2022/09/06 00:34:02;;;;;;;;;;;22.70;42.20;;;;;;5017198;28;19921;-61
2022/09/06 00:36:29;;;;;;;;;;;22.70;42.20;;;;;;5032682;28;19982;-62
2022/09/06 00:38:57;;;;;;;;;;;22.70;42.20;;;;;;5050148;28;19924;-61
2022/09/06 00:41:23;;;;;;;;;;;22.70;42.20;;;;;;5031096;28;19968;-61
2022/09/06 00:43:50;;;;;;;;;;;22.70;42.20;;;;;;5050487;28;19951;-61
2022/09/06 00:46:17;;;;;;;;;;;22.70;42.20;;;;;;5033166;28;19972;-61
2022/09/06 00:48:44;;;;;;;;;;;22.70;42.20;;;;;;5050449;28;19979;-60
2022/09/06 00:51:14;;;;;;;;;;;22.70;42.20;;;;;;5049932;28;19927;-60
2022/09/06 00:53:41;;;;;;;;;;;22.70;42.20;;;;;;5049229;28;19927;-60
2022/09/06 00:56:07;;;;;;;;;;;22.70;42.20;;;;;;5031426;28;19920;-60
2022/09/06 00:58:34;;;;;;;;;;;22.70;42.20;;;;;;5047636;28;19971;-60
2022/09/06 01:01:01;;;;;;;;;;;22.70;42.20;;;;;;5050648;28;20020;-60
2022/09/06 01:03:28;;;;;;;;;;;22.70;42.20;;;;;;5044649;28;19956;-60
2022/09/06 01:05:57;;;;;;;;;;;22.70;42.20;;;;;;5032414;28;19932;-59
2022/09/06 01:08:27;;;;;;;;;;;22.70;42.20;;;;;;5032067;28;20318;-60
2022/09/06 01:11:08;;;;;;;;;;;22.70;42.20;;;;;;5041164;28;19925;-59
2022/09/06 01:13:37;;;;;;;;;;;22.70;42.10;;;;;;5026350;28;19948;-61
2022/09/06 01:16:07;;;;;;;;;;;22.70;42.10;;;;;;5048303;28;20021;-60
2022/09/06 01:18:52;;;;;;;;;;;22.70;42.10;;;;;;5033163;28;19921;-60
2022/09/06 01:21:21;;;;;;;;;;;22.70;42.10;;;;;;5031619;28;20025;-60
2022/09/06 01:23:59;;;;;;;;;;;22.70;42.10;;;;;;5032142;28;19925;-59
2022/09/06 01:26:38;;;;;;;;;;;22.70;42.10;;;;;;5049096;28;20378;-61
2022/09/06 01:29:06;;;;;;;;;;;22.70;42.00;;;;;;5027919;28;20010;-61
2022/09/06 01:31:34;;;;;;;;;;;22.70;42.00;;;;;;5049671;28;19975;-61
2022/09/06 01:34:11;;;;;;;;;;;22.70;42.00;;;;;;5030146;28;19968;-61
2022/09/06 01:36:39;;;;;;;;;;;22.60;41.90;;;;;;5032883;28;19966;-61
2022/09/06 01:39:06;;;;;;;;;;;22.70;42.00;;;;;;5044761;28;19920;-61
2022/09/06 01:41:32;;;;;;;;;;;22.60;41.80;;;;;;5049331;28;19971;-61
2022/09/06 01:43:59;;;;;;;;;;;22.60;41.80;;;;;;5013478;28;19978;-61
2022/09/06 01:46:30;;;;;;;;;;;22.60;41.80;;;;;;5047496;28;20026;-61
2022/09/06 01:49:00;;;;;;;;;;;22.60;41.80;;;;;;5049262;28;19944;-61
2022/09/06 01:51:28;;;;;;;;;;;22.60;41.70;;;;;;5043935;28;19929;-61
2022/09/06 01:54:00;;;;;;;;;;;22.60;41.70;;;;;;5043842;28;19970;-61
2022/09/06 01:56:38;;;;;;;;;;;22.60;41.70;;;;;;5046738;28;20004;-61
2022/09/06 01:59:18;;;;;;;;;;;22.60;41.70;;;;;;5039814;28;19921;-61
2022/09/06 02:01:48;;;;;;;;;;;22.60;41.60;;;;;;5047351;28;19921;-61
2022/09/06 02:04:16;;;;;;;;;;;22.60;41.60;;;;;;5044392;28;19925;-61
2022/09/06 02:06:43;;;;;;;;;;;22.60;41.60;;;;;;5050293;28;19921;-61
2022/09/06 02:09:11;;;;;;;;;;;22.60;41.60;;;;;;5044537;28;19927;-61
2022/09/06 02:11:39;;;;;;;;;;;22.60;42.10;;;;;;5030442;28;20429;-61
2022/09/06 02:14:07;;;;;;;;;;;22.60;41.50;;;;;;5030967;28;20018;-62
2022/09/06 02:16:36;;;;;;;;;;;22.60;41.40;;;;;;5029963;28;20315;-61
2022/09/06 02:19:05;;;;;;;;;;;22.60;41.40;;;;;;5023257;28;19920;-61
2022/09/06 02:21:32;;;;;;;;;;;22.60;41.40;;;;;;5030139;28;20282;-61
2022/09/06 02:24:00;;;;;;;;;;;22.60;41.30;;;;;;5030883;28;19990;-61
2022/09/06 02:26:27;;;;;;;;;;;22.60;41.30;;;;;;5049481;28;20337;-61
2022/09/06 02:28:54;;;;;;;;;;;22.60;41.30;;;;;;5048476;28;20366;-61
2022/09/06 02:31:21;;;;;;;;;;;22.60;41.20;;;;;;5031560;28;19975;-61
2022/09/06 02:33:49;;;;;;;;;;;22.60;41.10;;;;;;5030480;28;20024;-61
2022/09/06 02:36:17;;;;;;;;;;;22.50;41.00;;;;;;5031828;28;19928;-61
2022/09/06 02:38:44;;;;;;;;;;;22.60;41.00;;;;;;5044059;28;19925;-61
2022/09/06 02:41:11;;;;;;;;;;;22.50;41.00;;;;;;5047937;28;19978;-59
2022/09/06 02:43:37;;;;;;;;;;;22.60;41.00;;;;;;5048557;28;20440;-60
2022/09/06 02:46:04;;;;;;;;;;;22.50;40.90;;;;;;5047903;28;19988;-60
2022/09/06 02:48:30;;;;;;;;;;;22.50;40.90;;;;;;5047762;28;19921;-60
2022/09/06 02:50:57;;;;;;;;;;;22.50;40.90;;;;;;5048055;28;19948;-60
2022/09/06 02:53:25;;;;;;;;;;;22.50;40.90;;;;;;5022772;28;19944;-60
2022/09/06 02:55:52;;;;;;;;;;;22.50;40.90;;;;;;5024700;28;19967;-60
2022/09/06 02:58:19;;;;;;;;;;;22.50;40.80;;;;;;5049681;28;19925;-60
2022/09/06 03:00:46;;;;;;;;;;;22.50;40.80;;;;;;5011862;28;19925;-60
2022/09/06 03:03:13;;;;;;;;;;;22.50;40.70;;;;;;5030902;28;19921;-60
2022/09/06 03:05:40;;;;;;;;;;;22.50;40.70;;;;;;5028435;28;19975;-60
2022/09/06 03:08:06;;;;;;;;;;;22.50;40.70;;;;;;5047914;28;19928;-61
2022/09/06 03:10:35;;;;;;;;;;;22.50;40.60;;;;;;5049088;28;19943;-60
2022/09/06 03:13:01;;;;;;;;;;;22.50;40.60;;;;;;5034108;28;19921;-60
2022/09/06 03:15:28;;;;;;;;;;;22.50;40.60;;;;;;5050428;28;19956;-60
2022/09/06 03:17:57;;;;;;;;;;;22.50;40.60;;;;;;5034602;28;19920;-60
2022/09/06 03:20:23;;;;;;;;;;;22.50;40.50;;;;;;5049626;28;20330;-61
2022/09/06 03:22:50;;;;;;;;;;;22.50;40.40;;;;;;5034874;28;19928;-61
2022/09/06 03:25:17;;;;;;;;;;;22.50;40.30;;;;;;5049459;28;20015;-61
2022/09/06 03:27:45;;;;;;;;;;;22.50;40.40;;;;;;5048842;28;20016;-61
2022/09/06 03:30:12;;;;;;;;;;;22.50;40.20;;;;;;5035318;28;19951;-61
2022/09/06 03:32:39;;;;;;;;;;;22.50;40.20;;;;;;5050077;28;19939;-61
2022/09/06 03:35:06;;;;;;;;;;;22.50;40.10;;;;;;5050362;28;20320;-61
2022/09/06 03:37:33;;;;;;;;;;;22.50;40.10;;;;;;5018395;28;19931;-61
2022/09/06 03:40:00;;;;;;;;;;;22.40;40.00;;;;;;5050642;28;19983;-60
2022/09/06 03:42:26;;;;;;;;;;;22.40;39.90;;;;;;5052494;28;19956;-60
2022/09/06 03:44:54;;;;;;;;;;;22.40;39.90;;;;;;5032764;28;19944;-60
2022/09/06 03:47:21;;;;;;;;;;;22.40;39.80;;;;;;5031682;28;19921;-60
2022/09/06 03:49:50;;;;;;;;;;;22.40;39.80;;;;;;5050369;28;19948;-61
2022/09/06 03:52:16;;;;;;;;;;;22.50;39.80;;;;;;5034163;28;20420;-61
2022/09/06 03:54:43;;;;;;;;;;;22.40;39.60;;;;;;5046209;28;20386;-62
2022/09/06 03:57:10;;;;;;;;;;;22.40;39.60;;;;;;5051442;28;19982;-61
2022/09/06 03:59:37;;;;;;;;;;;22.40;39.60;;;;;;5034698;28;19920;-61
2022/09/06 04:02:06;;;;;;;;;;;22.40;39.50;;;;;;5049510;28;19950;-61
2022/09/06 04:04:33;;;;;;;;;;;22.40;39.40;;;;;;5028847;28;19925;-61
2022/09/06 04:06:59;;;;;;;;;;;22.40;39.40;;;;;;5034269;28;19943;-62
2022/09/06 04:09:26;;;;;;;;;;;22.40;39.30;;;;;;5033399;28;20002;-61
2022/09/06 04:11:53;;;;;;;;;;;22.40;39.30;;;;;;5050405;28;19950;-61
2022/09/06 04:14:19;;;;;;;;;;;22.40;39.20;;;;;;5051317;28;20015;-60
2022/09/06 04:16:46;;;;;;;;;;;22.30;39.10;;;;;;5031123;28;20024;-61
2022/09/06 04:19:14;;;;;;;;;;;22.30;39.00;;;;;;5034565;28;19967;-62
2022/09/06 04:21:41;;;;;;;;;;;22.30;39.00;;;;;;5029640;28;20006;-62
2022/09/06 04:24:08;;;;;;;;;;;22.30;39.00;;;;;;5034128;28;20262;-60
2022/09/06 04:26:34;;;;;;;;;;;22.30;38.90;;;;;;5050970;28;20074;-61
2022/09/06 04:29:01;;;;;;;;;;;22.30;38.90;;;;;;5034274;28;19921;-61
2022/09/06 04:31:28;;;;;;;;;;;22.30;38.80;;;;;;5049846;28;19928;-61
2022/09/06 04:33:55;;;;;;;;;;;22.30;38.80;;;;;;5048687;28;19951;-61
2022/09/06 04:36:23;;;;;;;;;;;22.30;38.70;;;;;;5032717;28;19927;-61
2022/09/06 04:38:49;;;;;;;;;;;22.30;38.60;;;;;;5046026;28;20286;-60
2022/09/06 04:41:17;;;;;;;;;;;22.30;38.60;;;;;;5032514;28;20027;-61
2022/09/06 04:43:44;;;;;;;;;;;22.30;38.60;;;;;;5031057;28;19932;-61
2022/09/06 04:46:11;;;;;;;;;;;22.30;38.40;;;;;;5033313;28;19925;-61
2022/09/06 04:48:38;;;;;;;;;;;22.30;38.40;;;;;;5050051;28;20326;-61
2022/09/06 04:51:05;;;;;;;;;;;22.20;38.30;;;;;;5032024;28;19925;-61
2022/09/06 04:53:34;;;;;;;;;;;22.20;38.20;;;;;;5048763;28;19928;-61
2022/09/06 04:56:01;;;;;;;;;;;22.20;38.10;;;;;;5046422;28;19935;-61
2022/09/06 04:58:28;;;;;;;;;;;22.20;38.00;;;;;;5049542;28;19925;-61
2022/09/06 05:00:55;;;;;;;;;;;22.20;38.00;;;;;;5030176;28;20055;-61
2022/09/06 05:03:21;;;;;;;;;;;22.20;38.00;;;;;;5032223;28;19932;-60
2022/09/06 05:05:48;;;;;;;;;;;22.20;37.90;;;;;;5049434;28;19960;-60
2022/09/06 05:08:14;;;;;;;;;;;22.20;37.80;;;;;;5032096;28;19921;-61
2022/09/06 05:10:42;;;;;;;;;;;22.20;37.80;;;;;;5048333;28;19925;-60
2022/09/06 05:13:09;;;;;;;;;;;22.20;37.80;;;;;;5028673;28;19921;-61
2022/09/06 05:15:36;;;;;;;;;;;22.20;37.80;;;;;;5030852;28;19972;-60
2022/09/06 05:18:03;;;;;;;;;;;22.20;37.80;;;;;;5033218;28;19924;-61
2022/09/06 05:20:30;;;;;;;;;;;22.20;37.70;;;;;;5032537;28;19921;-61
2022/09/06 05:22:57;;;;;;;;;;;22.20;37.70;;;;;;5038869;28;19921;-61
2022/09/06 05:25:23;;;;;;;;;;;22.20;37.70;;;;;;5044514;28;20100;-61
2022/09/06 05:27:52;;;;;;;;;;;22.20;37.70;;;;;;5049562;28;19921;-60
2022/09/06 05:30:19;;;;;;;;;;;22.10;37.60;;;;;;5025970;28;19933;-59
2022/09/06 05:32:46;;;;;;;;;;;22.10;37.70;;;;;;5047127;28;20024;-60
2022/09/06 05:35:12;;;;;;;;;;;22.10;37.60;;;;;;5031791;28;19920;-60
2022/09/06 05:37:39;;;;;;;;;;;22.10;37.60;;;;;;5031883;28;19972;-61
2022/09/06 05:40:07;;;;;;;;;;;22.10;37.60;;;;;;5032958;28;19920;-60
2022/09/06 05:42:33;;;;;;;;;;;22.10;37.60;;;;;;5045026;28;20009;-61
2022/09/06 05:45:01;;;;;;;;;;;22.10;37.50;;;;;;5050406;28;19975;-60
2022/09/06 05:47:30;;;;;;;;;;;22.10;37.50;;;;;;5049852;28;19921;-60
2022/09/06 05:49:56;;;;;;;;;;;22.10;37.50;;;;;;5050238;28;19920;-60
2022/09/06 05:52:23;;;;;;;;;;;22.10;37.50;;;;;;5030832;28;19960;-61
2022/09/06 05:54:50;;;;;;;;;;;22.10;37.50;;;;;;5032334;28;19925;-61
2022/09/06 05:57:16;;;;;;;;;;;22.10;37.50;;;;;;5048641;28;19994;-60
2022/09/06 05:59:43;;;;;;;;;;;22.10;37.50;;;;;;5049612;28;19921;-61
2022/09/06 06:02:14;;;;;;;;;;;22.10;37.50;;;;;;5031720;28;20019;-60
2022/09/06 06:04:41;;;;;;;;;;;22.10;37.40;;;;;;5044185;28;19979;-60
2022/09/06 06:07:07;;;;;;;;;;;22.10;37.40;;;;;;5048990;28;19932;-61
2022/09/06 06:09:34;;;;;;;;;;;22.10;37.40;;;;;;5049424;28;19920;-61
2022/09/06 06:12:01;;;;;;;;;;;22.10;37.40;;;;;;5047931;28;19999;-61
2022/09/06 06:14:28;;;;;;;;;;;22.10;37.50;;;;;;5048731;28;19931;-60
2022/09/06 06:16:55;;;;;;;;;;;22.10;38.00;;;;;;5030552;28;19927;-60
2022/09/06 06:19:23;;;;;;;;;;;22.10;37.40;;;;;;5031258;28;19975;-60
2022/09/06 06:21:49;;;;;;;;;;;22.10;37.40;;;;;;5029041;28;20011;-59
2022/09/06 06:24:16;;;;;;;;;;;22.10;37.40;;;;;;5048814;28;19928;-60
2022/09/06 06:26:43;;;;;;;;;;;22.10;37.40;;;;;;5048016;28;19927;-61
2022/09/06 06:29:09;;;;;;;;;;;22.10;37.40;;;;;;5049820;28;19968;-61
2022/09/06 06:31:36;;;;;;;;;;;22.00;37.30;;;;;;5046139;28;19964;-61
2022/09/06 06:34:03;;;;;;;;;;;22.00;37.30;;;;;;5032499;28;19925;-60
2022/09/06 06:36:32;;;;;;;;;;;22.00;37.20;;;;;;5042287;28;19921;-61
2022/09/06 06:38:59;;;;;;;;;;;22.10;37.40;;;;;;5017998;28;19953;-60
2022/09/06 06:41:26;;;;;;;;;;;22.00;37.30;;;;;;5022171;28;20358;-61
2022/09/06 06:43:53;;;;;;;;;;;22.10;37.30;;;;;;5014126;28;19939;-61
2022/09/06 06:46:20;;;;;;;;;;;22.00;37.80;;;;;;5048100;28;19999;-62
2022/09/06 06:48:46;;;;;;;;;;;22.10;37.30;;;;;;5041740;28;20008;-60
2022/09/06 06:51:14;;;;;;;;;;;22.10;37.30;;;;;;5038934;28;19975;-60
2022/09/06 06:53:42;;;;;;;;;;;22.00;37.80;;;;;;5041375;28;19924;-60
2022/09/06 06:56:16;;;;;;;;;;;22.10;37.30;;;;;;5023563;28;19925;-60
2022/09/06 06:58:43;;;;;;;;;;;22.10;37.30;;;;;;5039143;28;19971;-61
2022/09/06 07:01:10;;;;;;;;;;;22.00;37.20;;;;;;5033023;28;19952;-60
2022/09/06 07:03:36;;;;;;;;;;;22.00;37.10;;;;;;5036478;28;20393;-61
2022/09/06 07:06:03;;;;;;;;;;;22.00;37.20;;;;;;5016075;28;20325;-61
2022/09/06 07:08:30;;;;;;;;;;;22.00;37.20;;;;;;5019314;28;19935;-61
2022/09/06 07:10:58;;;;;;;;;;;22.00;37.20;;;;;;5026409;28;19974;-58
2022/09/06 07:13:25;;;;;;;;;;;22.00;37.20;;;;;;5044362;28;20275;-59
2022/09/06 07:15:52;;;;;;;;;;;22.00;37.20;;;;;;5035407;28;19920;-60
2022/09/06 07:18:18;;;;;;;;;;;22.00;37.20;;;;;;5032696;28;20002;-60
2022/09/06 07:20:45;;;;;;;;;;;22.00;37.30;;;;;;5049642;28;19928;-60
2022/09/06 07:23:12;;;;;;;;;;;22.00;37.40;;;;;;5049812;28;20417;-61
2022/09/06 07:25:39;;;;;;;;;;;22.10;37.40;;;;;;5036180;28;19925;-61
2022/09/06 07:28:07;;;;;;;;;;;22.10;37.50;;;;;;5049444;28;19971;-61
2022/09/06 07:30:35;;;;;;;;;;;22.10;37.40;;;;;;5048018;28;19958;-61
2022/09/06 07:33:04;;;;;;;;;;;22.10;37.50;;;;;;5051379;28;19928;-60
2022/09/06 07:35:30;;;;;;;;;;;22.10;37.50;;;;;;5036041;28;20370;-59
2022/09/06 07:37:57;;;;;;;;;;;22.10;37.40;;;;;;5048366;28;20306;-59
2022/09/06 07:40:25;;;;;;;;;;;22.10;37.50;;;;;;5051334;28;19927;-60
2022/09/06 07:42:52;;;;;;;;;;;22.10;38.10;;;;;;5036763;28;19921;-61
2022/09/06 07:45:20;;;;;;;;;;;22.10;37.50;;;;;;5034992;28;20321;-60
2022/09/06 07:47:53;;;;;;;;;;;22.10;37.50;;;;;;5035695;28;19921;-60
2022/09/06 07:50:19;;;;;;;;;;;22.10;37.50;;;;;;5035873;28;19921;-60
2022/09/06 07:52:46;;;;;;;;;;;22.10;37.60;;;;;;5049380;28;20362;-61
2022/09/06 07:55:13;;;;;;;;;;;22.10;37.60;;;;;;5035809;28;19921;-60
2022/09/06 07:57:39;;;;;;;;;;;22.20;37.70;;;;;;5033794;28;19956;-60
2022/09/06 08:00:07;;;;;;;;;;;22.20;37.70;;;;;;5035683;28;19994;-61
2022/09/06 08:02:35;;;;;;;;;;;22.20;37.70;;;;;;5034057;28;19928;-61
2022/09/06 08:05:02;;;;;;;;;;;22.20;37.70;;;;;;5048225;28;19921;-62
2022/09/06 08:07:29;;;;;;;;;;;22.20;37.70;;;;;;5033063;28;19943;-61
2022/09/06 08:09:56;;;;;;;;;;;22.20;37.70;;;;;;5039219;28;19971;-61
2022/09/06 08:12:22;;;;;;;;;;;22.20;37.60;;;;;;5046320;28;19990;-61
2022/09/06 08:14:49;;;;;;;;;;;22.20;37.60;;;;;;5035245;28;19921;-60
2022/09/06 08:17:16;;;;;;;;;;;22.20;37.70;;;;;;5049683;28;19956;-59
2022/09/06 08:19:44;;;;;;;;;;;22.20;37.70;;;;;;5035218;28;19960;-60
2022/09/06 08:22:11;;;;;;;;;;;22.20;37.70;;;;;;5050458;28;19986;-58
2022/09/06 08:24:38;;;;;;;;;;;22.20;37.70;;;;;;5030638;28;19951;-60
2022/09/06 08:27:06;;;;;;;;;;;22.20;37.70;;;;;;5049669;28;20332;-60
2022/09/06 08:29:33;;;;;;;;;;;22.20;37.70;;;;;;5034059;28;19925;-61
2022/09/06 08:31:59;;;;;;;;;;;22.20;37.70;;;;;;5031331;28;19986;-60
2022/09/06 08:34:26;;;;;;;;;;;22.20;37.70;;;;;;5051032;28;20019;-60
2022/09/06 08:36:55;;;;;;;;;;;22.20;37.80;;;;;;5032047;28;20012;-60
2022/09/06 08:39:21;;;;;;;;;;;22.20;37.80;;;;;;5033374;28;19936;-61
2022/09/06 08:41:50;;;;;;;;;;;22.20;37.80;;;;;;5050731;28;19964;-59
2022/09/06 08:44:17;;;;;;;;;;;22.20;37.80;;;;;;5046509;28;20037;-60
2022/09/06 08:46:47;;;;;;;;;;;22.20;37.80;;;;;;5047265;28;20281;-59
2022/09/06 08:49:14;;;;;;;;;;;22.30;37.90;;;;;;5048852;28;20018;-60
2022/09/06 08:51:46;;;;;;;;;;;22.20;37.80;;;;;;5032790;28;19925;-61
2022/09/06 08:54:15;;;;;;;;;;;22.20;37.90;;;;;;5050608;28;19920;-59
2022/09/06 08:56:42;;;;;;;;;;;22.30;38.00;;;;;;5049591;28;20019;-61
2022/09/06 08:59:11;;;;;;;;;;;22.20;38.00;;;;;;5030240;28;19925;-60
2022/09/06 09:01:40;;;;;;;;;;;22.30;38.10;;;;;;5046924;28;20192;-60
2022/09/06 09:04:06;;;;;;;;;;;22.30;38.10;;;;;;5034650;28;19924;-59
2022/09/06 09:06:33;;;;;;;;;;;22.30;38.10;;;;;;5046342;28;19960;-60
2022/09/06 09:09:01;;;;;;;;;;;22.30;38.10;;;;;;5047615;28;19967;-60
2022/09/06 09:11:32;;;;;;;;;;;22.30;38.10;;;;;;5046880;28;19925;-59
2022/09/06 09:14:02;;;;;;;;;;;22.30;38.20;;;;;;5027931;28;20298;-59
2022/09/06 09:16:28;;;;;;;;;;;22.30;38.20;;;;;;5029987;28;19967;-59
2022/09/06 09:18:56;;;;;;;;;;;22.30;38.20;;;;;;5049386;28;20019;-60
2022/09/06 09:21:23;;;;;;;;;;;22.30;38.30;;;;;;5051665;28;19928;-60
2022/09/06 09:23:51;;;;;;;;;;;22.30;38.30;;;;;;5048539;28;20015;-60
2022/09/06 09:26:18;;;;;;;;;;;22.30;38.30;;;;;;5047448;28;19943;-60
2022/09/06 09:28:59;;;;;;;;;;;22.30;38.40;;;;;;5051258;28;20162;-60
2022/09/06 09:31:32;;;;;;;;;;;22.30;38.40;;;;;;5027068;28;20366;-61
2022/09/06 09:34:03;;;;;;;;;;;22.30;38.40;;;;;;5028413;28;19967;-60
2022/09/06 09:36:30;;;;;;;;;;;22.30;38.50;;;;;;5030999;28;19943;-60
2022/09/06 09:38:57;;;;;;;;;;;22.30;38.50;;;;;;5047102;28;19975;-60
2022/09/06 09:41:24;;;;;;;;;;;22.30;38.60;;;;;;5031888;28;19927;-60
2022/09/06 09:43:54;;;;;;;;;;;22.30;38.60;;;;;;5046925;28;19971;-61
2022/09/06 09:46:28;;;;;;;;;;;22.30;38.60;;;;;;5049564;28;19975;-60
2022/09/06 09:49:07;;;;;;;;;;;22.30;38.70;;;;;;5049847;28;19931;-60
2022/09/06 09:51:35;;;;;;;;;;;22.30;38.70;;;;;;5024102;28;19961;-60
2022/09/06 09:54:02;;;;;;;;;;;22.30;38.70;;;;;;5033402;28;19971;-59
2022/09/06 09:56:39;;;;;;;;;;;22.30;38.70;;;;;;5049759;28;19925;-60
2022/09/06 09:59:17;;;;;;;;;;;22.30;38.80;;;;;;5039450;28;19964;-59
2022/09/06 10:01:43;;;;;;;;;;;22.30;38.80;;;;;;5030567;28;19927;-60
2022/09/06 10:04:12;;;;;;;;;;;22.40;38.90;;;;;;5047716;28;19928;-60
2022/09/06 10:06:38;;;;;;;;;;;22.40;38.90;;;;;;5030877;28;20003;-60
2022/09/06 10:09:21;;;;;;;;;;;22.40;38.90;;;;;;5031178;28;19921;-60
2022/09/06 10:11:49;;;;;;;;;;;22.40;38.90;;;;;;5023825;28;19921;-61
2022/09/06 10:14:21;;;;;;;;;;;22.40;39.00;;;;;;5048562;28;19975;-59
2022/09/06 10:16:50;;;;;;;;;;;22.40;39.00;;;;;;5027849;28;19921;-60
2022/09/06 10:19:29;;;;;;;;;;;22.40;39.00;;;;;;5047631;28;20464;-60
2022/09/06 10:21:57;;;;;;;;;;;22.40;39.00;;;;;;5031940;28;20017;-59
2022/09/06 10:24:25;;;;;;;;;;;22.40;39.00;;;;;;5047945;28;19987;-60
2022/09/06 10:26:52;;;;;;;;;;;22.40;39.00;;;;;;5048205;28;20349;-60
2022/09/06 10:29:20;;;;;;;;;;;22.40;39.00;;;;;;5031720;28;19924;-61
2022/09/06 10:31:50;;;;;;;;;;;22.40;39.10;;;;;;5031297;28;19932;-60
2022/09/06 10:34:37;;;;;;;;;;;22.40;39.10;;;;;;5031385;28;19924;-60
2022/09/06 10:37:06;;;;;;;;;;;22.40;39.10;;;;;;5028384;28;20023;-59
2022/09/06 10:39:35;;;;;;;;;;;22.40;39.10;;;;;;5047263;28;19924;-59
2022/09/06 10:42:05;;;;;;;;;;;22.40;39.20;;;;;;5045486;28;19921;-59
2022/09/06 10:44:37;;;;;;;;;;;22.40;39.20;;;;;;5032428;28;20011;-60
2022/09/06 10:47:05;;;;;;;;;;;22.40;39.20;;;;;;5049092;28;20410;-61
2022/09/06 10:49:31;;;;;;;;;;;22.50;39.30;;;;;;5025873;28;20016;-61
2022/09/06 10:52:00;;;;;;;;;;;22.50;39.30;;;;;;5030608;28;19977;-60
2022/09/06 10:54:26;;;;;;;;;;;22.50;39.30;;;;;;5030007;28;20400;-60
2022/09/06 10:56:55;;;;;;;;;;;22.50;39.40;;;;;;5049475;28;19928;-61
2022/09/06 10:59:22;;;;;;;;;;;22.50;39.40;;;;;;5047768;28;19987;-60
2022/09/06 11:01:52;;;;;;;;;;;22.50;39.40;;;;;;5028475;28;19943;-60
2022/09/06 11:04:21;;;;;;;;;;;22.50;39.40;;;;;;5030630;28;20356;-60
2022/09/06 11:06:50;;;;;;;;;;;22.50;39.40;;;;;;5024129;28;19960;-60
2022/09/06 11:09:19;;;;;;;;;;;22.50;39.40;;;;;;5020767;28;20319;-60
2022/09/06 11:11:47;;;;;;;;;;;22.50;39.40;;;;;;5026591;28;19921;-60
2022/09/06 11:14:14;;;;;;;;;;;22.50;39.50;;;;;;5045406;28;19937;-59
2022/09/06 11:16:43;;;;;;;;;;;22.50;39.50;;;;;;5029888;28;19967;-60
2022/09/06 11:19:10;;;;;;;;;;;22.50;39.60;;;;;;5046351;28;20019;-60
2022/09/06 11:21:46;;;;;;;;;;;22.50;39.60;;;;;;5035715;28;19956;-59
2022/09/06 11:24:13;;;;;;;;;;;22.50;39.60;;;;;;5044146;28;20353;-59
2022/09/06 11:26:44;;;;;;;;;;;22.50;39.60;;;;;;5048052;28;20015;-59
2022/09/06 11:29:16;;;;;;;;;;;22.50;39.60;;;;;;5037447;28;20039;-60
2022/09/06 11:31:50;;;;;;;;;;;22.50;39.70;;;;;;5031865;28;19928;-58
2022/09/06 11:34:19;;;;;;;;;;;22.50;39.70;;;;;;5034554;28;19929;-59
2022/09/06 11:36:46;;;;;;;;;;;22.50;39.70;;;;;;5029385;28;19925;-60
2022/09/06 11:39:13;;;;;;;;;;;22.50;39.70;;;;;;5035519;28;19940;-61
2022/09/06 11:41:41;;;;;;;;;;;22.50;39.80;;;;;;5035899;28;20090;-60
2022/09/06 11:44:09;;;;;;;;;;;22.50;39.80;;;;;;5051388;28;19925;-60
2022/09/06 11:46:54;;;;;;;;;;;22.50;39.80;;;;;;5036050;28;19920;-60
2022/09/06 11:49:28;;;;;;;;;;;22.60;39.90;;;;;;5031046;28;19929;-60
2022/09/06 11:51:55;;;;;;;;;;;22.50;39.80;;;;;;5050280;28;20514;-59
2022/09/06 11:54:23;;;;;;;;;;;22.60;39.90;;;;;;5046444;28;20004;-60
2022/09/06 11:56:51;;;;;;;;;;;22.60;39.90;;;;;;5035768;28;19978;-60
2022/09/06 11:59:25;;;;;;;;;;;22.60;39.90;;;;;;5029675;28;19920;-62
2022/09/06 12:02:01;;;;;;;;;;;22.60;40.00;;;;;;5035961;28;19921;-61
2022/09/06 12:04:42;;;;;;;;;;;22.60;40.00;;;;;;5049563;28;20003;-60
2022/09/06 12:07:09;;;;;;;;;;;22.60;40.10;;;;;;5026962;28;19921;-60
2022/09/06 12:09:36;;;;;;;;;;;22.60;40.10;;;;;;5046944;28;19979;-62
2022/09/06 12:12:03;;;;;;;;;;;22.60;40.10;;;;;;5034948;28;19971;-60
2022/09/06 12:14:32;;;;;;;;;;;22.60;40.10;;;;;;5038007;28;20016;-61
2022/09/06 12:17:26;;;;;;;;;;;22.60;40.10;;;;;;5027251;28;20403;-60
2022/09/06 12:19:54;;;;;;;;;;;22.60;40.10;;;;;;5048606;28;19925;-61
2022/09/06 12:22:35;;;;;;;;;;;22.60;40.20;;;;;;5033182;28;19974;-60
2022/09/06 12:25:02;;;;;;;;;;;22.60;40.10;;;;;;5034174;28;19960;-61
2022/09/06 12:27:29;;;;;;;;;;;22.70;40.30;;;;;;5034410;28;19920;-62
2022/09/06 12:29:58;;;;;;;;;;;22.60;40.20;;;;;;5034985;28;19970;-60
2022/09/06 12:32:28;;;;;;;;;;;22.60;40.20;;;;;;5030777;28;19921;-62
2022/09/06 12:34:55;;;;;;;;;;;22.70;40.30;;;;;;5051268;28;20023;-59
2022/09/06 12:37:33;;;;;;;;;;;22.70;40.30;;;;;;5049355;28;19992;-61
2022/09/06 12:39:59;;;;;;;;;;;22.70;40.30;;;;;;5047248;28;19921;-61
2022/09/06 12:42:26;;;;;;;;;;;22.70;40.30;;;;;;5049233;28;20012;-60
2022/09/06 12:44:53;;;;;;;;;;;22.70;40.30;;;;;;5050212;28;19960;-61
2022/09/06 12:47:21;;;;;;;;;;;22.70;40.30;;;;;;5051483;28;19967;-60
2022/09/06 12:49:57;;;;;;;;;;;22.70;40.30;;;;;;5046106;28;19992;-60
2022/09/06 12:52:24;;;;;;;;;;;22.70;40.30;;;;;;5041817;28;19979;-62
2022/09/06 12:54:51;;;;;;;;;;;22.70;40.30;;;;;;5041466;28;19925;-63
2022/09/06 12:57:18;;;;;;;;;;;22.70;40.30;;;;;;5028953;28;19921;-61
2022/09/06 12:59:49;;;;;;;;;;;22.70;40.30;;;;;;5046398;28;19978;-61
2022/09/06 13:02:16;;;;;;;;;;;22.70;40.30;;;;;;5024040;28;19925;-61
2022/09/06 13:04:45;;;;;;;;;;;22.70;40.40;;;;;;5050435;28;19921;-62
2022/09/06 13:07:13;;;;;;;;;;;22.70;40.40;;;;;;5049436;28;19976;-61
2022/09/06 13:09:57;;;;;;;;;;;22.70;40.40;;;;;;5041933;27;1923801;-61
2022/09/06 13:12:25;;;;;;;;;;;22.70;40.40;;;;;;5104743;28;20342;-63
2022/09/06 13:14:52;;;;;;;;;;;22.70;40.40;;;;;;5088621;28;19920;-63
2022/09/06 13:17:22;;;;;;;;;;;22.70;40.40;;;;;;5106562;28;19989;-61
2022/09/06 13:19:49;;;;;;;;;;;22.70;40.50;;;;;;5088588;28;19981;-61
2022/09/06 13:22:36;;;;;;;;;;;22.70;40.40;;;;;;5104043;28;20323;-61
2022/09/06 13:25:05;;;;;;;;;;;22.70;40.40;;;;;;5086256;28;19920;-62
2022/09/06 13:27:35;;;;;;;;;;;22.70;40.50;;;;;;5088414;28;20019;-64
2022/09/06 13:30:02;;;;;;;;;;;22.70;40.50;;;;;;5087109;28;20010;-61
2022/09/06 13:32:29;;;;;;;;;;;22.70;40.50;;;;;;5085799;28;19927;-62
2022/09/06 13:34:56;;;;;;;;;;;22.70;40.50;;;;;;5082711;28;19955;-61
2022/09/06 13:37:24;;;;;;;;;;;22.70;40.50;;;;;;5088362;28;19927;-63
2022/09/06 13:39:50;;;;;;;;;;;22.70;40.60;;;;;;5085557;28;20404;-64
2022/09/06 13:42:27;;;;;;;;;;;22.70;40.50;;;;;;5103249;28;20024;-61
2022/09/06 13:44:55;;;;;;;;;;;22.70;40.60;;;;;;5088200;28;19955;-62
2022/09/06 13:47:22;;;;;;;;;;;22.70;40.60;;;;;;5085294;28;20014;-61
2022/09/06 13:49:50;;;;;;;;;;;22.70;40.50;;;;;;5086413;28;20022;-62
2022/09/06 13:52:17;;;;;;;;;;;22.70;40.60;;;;;;5085789;28;19959;-61
2022/09/06 13:54:44;;;;;;;;;;;22.70;40.60;;;;;;5084228;28;19970;-63
2022/09/06 13:57:11;;;;;;;;;;;22.80;40.70;;;;;;5085080;28;19936;-63
2022/09/06 13:59:39;;;;;;;;;;;22.80;40.60;;;;;;5098435;28;20361;-62
2022/09/06 14:02:06;;;;;;;;;;;22.80;40.70;;;;;;5084611;28;20440;-62
2022/09/06 14:04:34;;;;;;;;;;;22.70;40.60;;;;;;5086731;28;20006;-62
2022/09/06 14:07:01;;;;;;;;;;;22.80;40.70;;;;;;5099780;28;19971;-63
2022/09/06 14:09:28;;;;;;;;;;;22.80;40.80;;;;;;5086043;28;20027;-62
2022/09/06 14:11:55;;;;;;;;;;;22.80;40.80;;;;;;5086132;28;20276;-60
2022/09/06 14:14:22;;;;;;;;;;;22.80;40.80;;;;;;5081654;28;19920;-62
2022/09/06 14:16:50;;;;;;;;;;;22.80;40.80;;;;;;5086619;28;19932;-61
2022/09/06 14:19:16;;;;;;;;;;;22.80;40.80;;;;;;5099176;28;19968;-62
2022/09/06 14:21:43;;;;;;;;;;;22.80;40.90;;;;;;5072084;28;19931;-64
2022/09/06 14:24:10;;;;;;;;;;;22.80;40.90;;;;;;5068632;28;20327;-62